Aérodrome :
LOGIN :

S'inscrire | Disclaimer

   EN    FR    IT 

 










Légende :    VFR   VFR Marginal   IFR   IFR Intensif   IFR Très Intensif
Visi : 
Plafond : 
>= 8 km
>= 3000ft
5 à 8 km
1000 à 3000 ft
1500m à 5 km
500 à 1000 ft
800 à 1500m
200 à 500 ft
< 800m
< 200 ft
Symboles :   Orages  Brouillard  Fortes neiges  Fortes précipitations  Vent > 20 kt
SIGMETs :   Divers  Orages  Givrage  Turbulence  Onde Orograph.  Cendres Volcan.






- Altitude de l'aérodrome : 779 ft
- Code IATA : CMF


LFLB - Chambery / Aix-Les-Bains

DERNIER METAR :
  • 132000Z AUTO 20008KT 180V260 9999 -RA FEW066/// SCT094/// OVC120/// ///CB 19/17 Q1018

METARs EXPIRÉS :
  • 131930Z AUTO 23006KT 200V270 9000 TSRA FEW048/// SCT098/// OVC110/// ///CB 19/18 Q1018
  • 131900Z AUTO 24003KT 190V290 9999 -RA VCTS FEW056/// BKN070/// BKN086/// ///CB 19/18 Q1018 TEMPO VRB20G35KT 4000 TSRA BECMG NSC
  • 131830Z AUTO 19008KT 150V240 9000 -TSRA FEW028/// BKN068/// BKN082/// ///CB 19/17 Q1017 TEMPO VRB20G35KT 4000 TSRA BECMG NSC
  • 131800Z AUTO 19010KT 9999 VCTS BKN070/// BKN100/// BKN160/// ///CB 19/18 Q1016 TEMPO VRB20G35KT 4000 TSRA
  • 131730Z AUTO 17009KT 140V230 9999 VCTS FEW025/// SCT096/// BKN130/// ///CB 19/17 Q1016 TEMPO VRB20G35KT 4000 TSRA

TAF TAF LFLB
Valide du 13 à 12h jusqu'au 14 à 12h UTC


131100Z 1312/1412 36006KT CAVOK
TEMPO 1312/1320 VRB15KT SHRA SCT090TCU
PROB40
TEMPO 1314/1320 VRB20G35KT 4000 TSRA BKN080CB
BECMG 1321/1401 VRB02KT BKN040
BECMG 1409/1412 SCT050



MET'MAP, la Météo Aéronautique d'un coup d'oeil ! - Copyright ORBIFLY Décembre 2007 - Disclaimer

ORBIFLY MET'MAP TEAM :

Programmation & Développement : Alexandra Zaïnal
Sur une idée originale de : Baudouin d'Aumeries
Assistance à la programmation : Marc-Olivier Méhu
Soutien technique & logistique : Manuel Goepfert

Contact : metmap@orbifly.com




SOURCES & CREDITS :

   NOAA